Angler Guide Weather for Koosharem -
Koosharem, Utah Current Weather Conditions
Enter your "Place, State", US Zip Code or ICAO:  
NowCast ZoneCast Warnings/Advisories Hourly Track Special Radar
Koosharem, Utah (84744)  Lat: 38.51N, Lon: 111.88W
Wx Zone: UTZ017 ICAO Used: KBCE
Current Conditions at nearby:
Bryce Canyon, UT
Updated: UNKNOWN
Sun & Moon Information:
Fair
Fair
Temp: 74°F
Humidity: 24%
Wind Speed: SW 12.7 MPH G 23.0 (11 MPH G 20 KT)
Barometer: 30.20 in.
Dewpoint: 35°F
Heat Index: 74°F
Wind Chill: 74°F
Civil Twilight: 6:27 AM MDT
Moonrise: 11:42 AM MDT Moon Phase:
Waxing Crescent Moon
Waxing Crescent Moon
Moonset: 10:40 PM MDT
Sunrise: 6:54 AM MDT
Sunset: 7:59 PM MDT
Civil Twilight: 8:26 PM MDT
Forecast for Koosharem, UT:
(Forecast based on TAF for )
0600 PM MDT FRI NOV 29 2013
  
EVENINGOVERNIGHTMORNINGAFTERNOON
TAF based forecast:
Dated: 0600 PM MDT FRI NOV 29 2013
Evening....
Overnight....
Morning....
Afternoon....
Original Encoded TAF:
Dated: 0600 PM MDT FRI NOV 29 2013
2014/08/30 18:36
TAF KBCE 301735Z 3018/3118 24014G22KT P6SM SCT080 BKN140 
     FM310100 25009KT P6SM SCT140



Powered by Angler Guide.com
Copyright 2007, all rights reserved.